sensor_id;sensor_type;location;lat;lon;timestamp;pressure;altitude;pressure_sealevel;temperature
75658;BMP280;64255;49.892;17.884;2022-12-29T00:00:45;98658.03;;;4.34
75658;BMP280;64255;49.892;17.884;2022-12-29T00:03:21;98644.97;;;4.27
75658;BMP280;64255;49.892;17.884;2022-12-29T00:05:57;98649.09;;;4.28
75658;BMP280;64255;49.892;17.884;2022-12-29T00:08:24;98632.03;;;4.45
75658;BMP280;64255;49.892;17.884;2022-12-29T00:10:54;98630.06;;;4.49
75658;BMP280;64255;49.892;17.884;2022-12-29T00:13:21;98633.47;;;4.50
75658;BMP280;64255;49.892;17.884;2022-12-29T00:15:49;98627.56;;;4.59
75658;BMP280;64255;49.892;17.884;2022-12-29T00:18:16;98624.09;;;4.62
75658;BMP280;64255;49.892;17.884;2022-12-29T00:20:43;98627.41;;;4.66
75658;BMP280;64255;49.892;17.884;2022-12-29T00:23:11;98620.50;;;4.68
75658;BMP280;64255;49.892;17.884;2022-12-29T00:25:37;98628.22;;;4.79
75658;BMP280;64255;49.892;17.884;2022-12-29T00:28:09;98615.28;;;4.81
75658;BMP280;64255;49.892;17.884;2022-12-29T00:30:36;98628.09;;;4.83
75658;BMP280;64255;49.892;17.884;2022-12-29T00:33:13;98625.88;;;4.81
75658;BMP280;64255;49.892;17.884;2022-12-29T00:35:54;98645.22;;;4.82
75658;BMP280;64255;49.892;17.884;2022-12-29T00:38:23;98642.66;;;4.78
75658;BMP280;64255;49.892;17.884;2022-12-29T00:40:50;98642.66;;;4.78
75658;BMP280;64255;49.892;17.884;2022-12-29T00:43:18;98656.25;;;4.80
75658;BMP280;64255;49.892;17.884;2022-12-29T00:45:45;98662.28;;;4.81
75658;BMP280;64255;49.892;17.884;2022-12-29T00:48:13;98662.72;;;4.79
75658;BMP280;64255;49.892;17.884;2022-12-29T00:50:39;98666.19;;;4.76
75658;BMP280;64255;49.892;17.884;2022-12-29T00:53:07;98652.16;;;4.76
75658;BMP280;64255;49.892;17.884;2022-12-29T00:55:37;98656.06;;;4.71
75658;BMP280;64255;49.892;17.884;2022-12-29T00:58:04;98663.28;;;4.70
75658;BMP280;64255;49.892;17.884;2022-12-29T01:00:30;98655.72;;;4.69
75658;BMP280;64255;49.892;17.884;2022-12-29T01:02:57;98649.69;;;4.68
75658;BMP280;64255;49.892;17.884;2022-12-29T01:05:24;98639.50;;;4.67
75658;BMP280;64255;49.892;17.884;2022-12-29T01:07:52;98634.78;;;4.75
75658;BMP280;64255;49.892;17.884;2022-12-29T01:10:19;98643.91;;;4.74
75658;BMP280;64255;49.892;17.884;2022-12-29T01:12:46;98640.72;;;4.79
75658;BMP280;64255;49.892;17.884;2022-12-29T01:15:14;98655.91;;;4.78
75658;BMP280;64255;49.892;17.884;2022-12-29T01:17:42;98653.47;;;4.84
75658;BMP280;64255;49.892;17.884;2022-12-29T01:20:10;98664.50;;;4.82
75658;BMP280;64255;49.892;17.884;2022-12-29T01:22:38;98667.59;;;4.81
75658;BMP280;64255;49.892;17.884;2022-12-29T01:25:07;98659.72;;;4.77
75658;BMP280;64255;49.892;17.884;2022-12-29T01:27:35;98658.91;;;4.80
75658;BMP280;64255;49.892;17.884;2022-12-29T01:30:03;98650.50;;;4.82
75658;BMP280;64255;49.892;17.884;2022-12-29T01:32:31;98655.72;;;4.85
75658;BMP280;64255;49.892;17.884;2022-12-29T01:34:58;98639.06;;;4.85
75658;BMP280;64255;49.892;17.884;2022-12-29T01:37:25;98632.59;;;4.86
75658;BMP280;64255;49.892;17.884;2022-12-29T01:39:53;98624.00;;;4.82
75658;BMP280;64255;49.892;17.884;2022-12-29T01:42:25;98654.22;;;4.84
75658;BMP280;64255;49.892;17.884;2022-12-29T01:44:57;98655.22;;;4.91
75658;BMP280;64255;49.892;17.884;2022-12-29T01:47:38;98650.81;;;4.84
75658;BMP280;64255;49.892;17.884;2022-12-29T01:50:29;98660.78;;;4.80
75658;BMP280;64255;49.892;17.884;2022-12-29T01:53:26;98646.13;;;4.75
75658;BMP280;64255;49.892;17.884;2022-12-29T01:56:01;98658.91;;;4.80
75658;BMP280;64255;49.892;17.884;2022-12-29T01:58:35;98667.75;;;4.74
75658;BMP280;64255;49.892;17.884;2022-12-29T02:01:05;98676.78;;;4.76
75658;BMP280;64255;49.892;17.884;2022-12-29T02:03:35;98674.28;;;4.69
75658;BMP280;64255;49.892;17.884;2022-12-29T02:06:12;98658.38;;;4.69
75658;BMP280;64255;49.892;17.884;2022-12-29T02:08:46;98663.94;;;4.75
75658;BMP280;64255;49.892;17.884;2022-12-29T02:11:16;98656.91;;;4.68
75658;BMP280;64255;49.892;17.884;2022-12-29T02:13:44;98660.72;;;4.67
75658;BMP280;64255;49.892;17.884;2022-12-29T02:19:52;98636.50;;;4.65
75658;BMP280;64255;49.892;17.884;2022-12-29T02:25:38;98631.38;;;4.58
75658;BMP280;64255;49.892;17.884;2022-12-29T02:34:38;98604.22;;;4.53
75658;BMP280;64255;49.892;17.884;2022-12-29T02:40:37;98600.97;;;4.46
75658;BMP280;64255;49.892;17.884;2022-12-29T02:43:48;98602.16;;;4.45
75658;BMP280;64255;49.892;17.884;2022-12-29T02:46:33;98591.66;;;4.41
75658;BMP280;64255;49.892;17.884;2022-12-29T02:49:27;98572.97;;;4.28
75658;BMP280;64255;49.892;17.884;2022-12-29T02:52:07;98581.25;;;4.30
75658;BMP280;64255;49.892;17.884;2022-12-29T02:54:37;98573.22;;;4.34
75658;BMP280;64255;49.892;17.884;2022-12-29T03:00:06;98583.44;;;4.35
75658;BMP280;64255;49.892;17.884;2022-12-29T03:08:46;98596.00;;;4.31
75658;BMP280;64255;49.892;17.884;2022-12-29T03:11:16;98592.88;;;4.20
75658;BMP280;64255;49.892;17.884;2022-12-29T03:13:48;98593.53;;;4.24
75658;BMP280;64255;49.892;17.884;2022-12-29T03:19:30;98591.13;;;4.13
75658;BMP280;64255;49.892;17.884;2022-12-29T03:22:05;98602.06;;;4.15
75658;BMP280;64255;49.892;17.884;2022-12-29T03:24:38;98609.00;;;4.09
75658;BMP280;64255;49.892;17.884;2022-12-29T03:27:12;98606.75;;;4.07
75658;BMP280;64255;49.892;17.884;2022-12-29T03:29:50;98603.16;;;4.01
75658;BMP280;64255;49.892;17.884;2022-12-29T03:32:23;98600.38;;;3.88
75658;BMP280;64255;49.892;17.884;2022-12-29T03:34:51;98608.47;;;3.81
75658;BMP280;64255;49.892;17.884;2022-12-29T03:37:26;98610.59;;;3.70
75658;BMP280;64255;49.892;17.884;2022-12-29T03:39:55;98610.97;;;3.88
75658;BMP280;64255;49.892;17.884;2022-12-29T03:42:28;98611.50;;;4.00
75658;BMP280;64255;49.892;17.884;2022-12-29T03:44:57;98604.84;;;3.92
75658;BMP280;64255;49.892;17.884;2022-12-29T03:47:25;98609.91;;;4.02
75658;BMP280;64255;49.892;17.884;2022-12-29T03:49:52;98605.13;;;3.97
75658;BMP280;64255;49.892;17.884;2022-12-29T03:52:20;98591.69;;;4.04
75658;BMP280;64255;49.892;17.884;2022-12-29T03:54:47;98595.34;;;3.94
75658;BMP280;64255;49.892;17.884;2022-12-29T03:57:14;98584.75;;;3.94
75658;BMP280;64255;49.892;17.884;2022-12-29T03:59:42;98589.34;;;3.73
75658;BMP280;64255;49.892;17.884;2022-12-29T04:02:09;98596.91;;;3.92
75658;BMP280;64255;49.892;17.884;2022-12-29T04:04:36;98602.81;;;3.99
75658;BMP280;64255;49.892;17.884;2022-12-29T04:07:03;98597.56;;;3.79
75658;BMP280;64255;49.892;17.884;2022-12-29T04:09:30;98607.16;;;3.89
75658;BMP280;64255;49.892;17.884;2022-12-29T04:11:58;98610.06;;;3.58
75658;BMP280;64255;49.892;17.884;2022-12-29T04:14:25;98610.34;;;3.64
75658;BMP280;64255;49.892;17.884;2022-12-29T04:16:53;98603.50;;;3.47
75658;BMP280;64255;49.892;17.884;2022-12-29T04:19:20;98604.28;;;3.43
75658;BMP280;64255;49.892;17.884;2022-12-29T04:21:48;98613.94;;;3.90
75658;BMP280;64255;49.892;17.884;2022-12-29T04:24:15;98611.75;;;3.69
75658;BMP280;64255;49.892;17.884;2022-12-29T04:26:42;98598.94;;;3.84
75658;BMP280;64255;49.892;17.884;2022-12-29T04:29:10;98591.41;;;3.46
75658;BMP280;64255;49.892;17.884;2022-12-29T04:31:37;98582.13;;;3.17
75658;BMP280;64255;49.892;17.884;2022-12-29T04:34:04;98567.59;;;3.25
75658;BMP280;64255;49.892;17.884;2022-12-29T04:36:32;98575.13;;;3.47
75658;BMP280;64255;49.892;17.884;2022-12-29T04:38:58;98579.94;;;3.52
75658;BMP280;64255;49.892;17.884;2022-12-29T04:41:26;98582.91;;;3.34
75658;BMP280;64255;49.892;17.884;2022-12-29T04:43:53;98587.00;;;3.19
75658;BMP280;64255;49.892;17.884;2022-12-29T04:46:21;98581.50;;;3.50
75658;BMP280;64255;49.892;17.884;2022-12-29T04:48:47;98585.56;;;4.07
75658;BMP280;64255;49.892;17.884;2022-12-29T04:51:15;98581.44;;;3.90
75658;BMP280;64255;49.892;17.884;2022-12-29T04:53:42;98573.06;;;4.25
75658;BMP280;64255;49.892;17.884;2022-12-29T04:56:10;98575.06;;;3.67
75658;BMP280;64255;49.892;17.884;2022-12-29T04:58:37;98580.31;;;3.71
75658;BMP280;64255;49.892;17.884;2022-12-29T05:01:05;98586.34;;;3.71
75658;BMP280;64255;49.892;17.884;2022-12-29T05:03:32;98575.78;;;4.04
75658;BMP280;64255;49.892;17.884;2022-12-29T05:05:59;98582.50;;;3.93
75658;BMP280;64255;49.892;17.884;2022-12-29T05:08:26;98584.25;;;3.99
75658;BMP280;64255;49.892;17.884;2022-12-29T05:10:54;98583.53;;;4.15
75658;BMP280;64255;49.892;17.884;2022-12-29T05:13:21;98584.34;;;4.12
75658;BMP280;64255;49.892;17.884;2022-12-29T05:15:51;98581.03;;;4.08
75658;BMP280;64255;49.892;17.884;2022-12-29T05:18:19;98601.56;;;4.53
75658;BMP280;64255;49.892;17.884;2022-12-29T05:20:47;98597.03;;;4.37
75658;BMP280;64255;49.892;17.884;2022-12-29T05:23:15;98589.31;;;4.43
75658;BMP280;64255;49.892;17.884;2022-12-29T05:25:43;98585.53;;;4.44
75658;BMP280;64255;49.892;17.884;2022-12-29T05:28:11;98583.50;;;4.48
75658;BMP280;64255;49.892;17.884;2022-12-29T05:30:38;98576.38;;;4.62
75658;BMP280;64255;49.892;17.884;2022-12-29T05:33:05;98576.56;;;4.38
75658;BMP280;64255;49.892;17.884;2022-12-29T05:35:33;98579.75;;;4.46
75658;BMP280;64255;49.892;17.884;2022-12-29T05:38:00;98561.22;;;4.46
75658;BMP280;64255;49.892;17.884;2022-12-29T05:40:28;98553.59;;;4.48
75658;BMP280;64255;49.892;17.884;2022-12-29T05:42:54;98541.06;;;4.48
75658;BMP280;64255;49.892;17.884;2022-12-29T05:45:22;98543.63;;;4.52
75658;BMP280;64255;49.892;17.884;2022-12-29T05:47:49;98536.00;;;4.54
75658;BMP280;64255;49.892;17.884;2022-12-29T05:50:16;98532.09;;;4.59
75658;BMP280;64255;49.892;17.884;2022-12-29T05:52:43;98532.97;;;4.56
75658;BMP280;64255;49.892;17.884;2022-12-29T05:55:11;98521.31;;;4.66
75658;BMP280;64255;49.892;17.884;2022-12-29T05:57:38;98519.00;;;4.68
75658;BMP280;64255;49.892;17.884;2022-12-29T06:00:07;98514.22;;;4.63
75658;BMP280;64255;49.892;17.884;2022-12-29T06:02:34;98517.41;;;4.70
75658;BMP280;64255;49.892;17.884;2022-12-29T06:05:02;98517.09;;;4.68
75658;BMP280;64255;49.892;17.884;2022-12-29T06:07:30;98515.94;;;4.69
75658;BMP280;64255;49.892;17.884;2022-12-29T06:09:57;98511.19;;;4.77
75658;BMP280;64255;49.892;17.884;2022-12-29T06:12:24;98492.28;;;4.75
75658;BMP280;64255;49.892;17.884;2022-12-29T06:14:52;98496.44;;;4.76
75658;BMP280;64255;49.892;17.884;2022-12-29T06:17:18;98472.56;;;4.76
75658;BMP280;64255;49.892;17.884;2022-12-29T06:19:45;98463.44;;;4.77
75658;BMP280;64255;49.892;17.884;2022-12-29T06:22:13;98461.97;;;4.76
75658;BMP280;64255;49.892;17.884;2022-12-29T06:24:39;98467.38;;;4.73
75658;BMP280;64255;49.892;17.884;2022-12-29T06:27:07;98467.59;;;4.78
75658;BMP280;64255;49.892;17.884;2022-12-29T06:29:34;98476.63;;;4.81
75658;BMP280;64255;49.892;17.884;2022-12-29T06:32:01;98477.78;;;4.80
75658;BMP280;64255;49.892;17.884;2022-12-29T06:34:29;98482.56;;;4.85
75658;BMP280;64255;49.892;17.884;2022-12-29T06:36:56;98504.41;;;4.76
75658;BMP280;64255;49.892;17.884;2022-12-29T06:39:23;98499.53;;;4.88
75658;BMP280;64255;49.892;17.884;2022-12-29T06:41:54;98504.75;;;4.91
75658;BMP280;64255;49.892;17.884;2022-12-29T06:44:22;98497.09;;;4.93
75658;BMP280;64255;49.892;17.884;2022-12-29T06:46:50;98491.16;;;4.89
75658;BMP280;64255;49.892;17.884;2022-12-29T06:49:17;98488.81;;;4.91
75658;BMP280;64255;49.892;17.884;2022-12-29T06:51:45;98494.88;;;4.92
75658;BMP280;64255;49.892;17.884;2022-12-29T06:54:12;98489.34;;;4.86
75658;BMP280;64255;49.892;17.884;2022-12-29T06:56:39;98496.06;;;4.91
75658;BMP280;64255;49.892;17.884;2022-12-29T06:59:09;98504.63;;;4.95
75658;BMP280;64255;49.892;17.884;2022-12-29T07:01:36;98508.44;;;4.94
75658;BMP280;64255;49.892;17.884;2022-12-29T07:04:04;98510.47;;;4.90
75658;BMP280;64255;49.892;17.884;2022-12-29T07:06:31;98516.84;;;4.92
75658;BMP280;64255;49.892;17.884;2022-12-29T07:08:59;98518.75;;;4.92
75658;BMP280;64255;49.892;17.884;2022-12-29T07:11:27;98531.38;;;4.88
75658;BMP280;64255;49.892;17.884;2022-12-29T07:13:55;98515.78;;;4.90
75658;BMP280;64255;49.892;17.884;2022-12-29T07:16:22;98509.94;;;4.82
75658;BMP280;64255;49.892;17.884;2022-12-29T07:18:49;98517.03;;;4.85
75658;BMP280;64255;49.892;17.884;2022-12-29T07:21:18;98490.91;;;4.83
75658;BMP280;64255;49.892;17.884;2022-12-29T07:23:45;98487.84;;;4.85
75658;BMP280;64255;49.892;17.884;2022-12-29T07:26:14;98487.44;;;4.86
75658;BMP280;64255;49.892;17.884;2022-12-29T07:28:42;98486.25;;;4.88
75658;BMP280;64255;49.892;17.884;2022-12-29T07:31:18;98469.59;;;4.87
75658;BMP280;64255;49.892;17.884;2022-12-29T07:33:47;98471.66;;;4.96
75658;BMP280;64255;49.892;17.884;2022-12-29T07:36:16;98458.19;;;5.03
75658;BMP280;64255;49.892;17.884;2022-12-29T07:38:44;98470.56;;;5.06
75658;BMP280;64255;49.892;17.884;2022-12-29T07:41:11;98480.59;;;5.15
75658;BMP280;64255;49.892;17.884;2022-12-29T07:43:38;98471.47;;;5.16
75658;BMP280;64255;49.892;17.884;2022-12-29T07:46:06;98482.41;;;5.18
75658;BMP280;64255;49.892;17.884;2022-12-29T07:48:33;98489.19;;;5.32
75658;BMP280;64255;49.892;17.884;2022-12-29T07:51:00;98494.72;;;5.25
75658;BMP280;64255;49.892;17.884;2022-12-29T07:53:28;98481.00;;;5.26
75658;BMP280;64255;49.892;17.884;2022-12-29T07:55:56;98496.84;;;5.30
75658;BMP280;64255;49.892;17.884;2022-12-29T07:58:23;98491.44;;;5.33
75658;BMP280;64255;49.892;17.884;2022-12-29T08:00:55;98492.59;;;5.32
75658;BMP280;64255;49.892;17.884;2022-12-29T08:03:23;98496.84;;;5.43
75658;BMP280;64255;49.892;17.884;2022-12-29T08:05:50;98504.81;;;5.43
75658;BMP280;64255;49.892;17.884;2022-12-29T08:08:18;98499.06;;;5.44
75658;BMP280;64255;49.892;17.884;2022-12-29T08:10:47;98498.66;;;5.46
75658;BMP280;64255;49.892;17.884;2022-12-29T08:13:14;98506.63;;;5.46
75658;BMP280;64255;49.892;17.884;2022-12-29T08:15:41;98517.31;;;5.42
75658;BMP280;64255;49.892;17.884;2022-12-29T08:18:09;98508.09;;;5.47
75658;BMP280;64255;49.892;17.884;2022-12-29T08:20:36;98502.56;;;5.54
75658;BMP280;64255;49.892;17.884;2022-12-29T08:23:03;98504.06;;;5.55
75658;BMP280;64255;49.892;17.884;2022-12-29T08:25:31;98503.28;;;5.55
75658;BMP280;64255;49.892;17.884;2022-12-29T08:27:58;98491.94;;;5.67
75658;BMP280;64255;49.892;17.884;2022-12-29T08:30:25;98488.84;;;5.69
75658;BMP280;64255;49.892;17.884;2022-12-29T08:32:53;98474.19;;;5.77
75658;BMP280;64255;49.892;17.884;2022-12-29T08:35:19;98464.28;;;5.77
75658;BMP280;64255;49.892;17.884;2022-12-29T08:37:47;98464.84;;;5.72
75658;BMP280;64255;49.892;17.884;2022-12-29T08:40:14;98453.03;;;5.73
75658;BMP280;64255;49.892;17.884;2022-12-29T08:42:42;98457.06;;;5.78
75658;BMP280;64255;49.892;17.884;2022-12-29T08:45:09;98468.09;;;5.89
75658;BMP280;64255;49.892;17.884;2022-12-29T08:47:36;98475.94;;;5.93
75658;BMP280;64255;49.892;17.884;2022-12-29T08:50:04;98469.47;;;5.94
75658;BMP280;64255;49.892;17.884;2022-12-29T08:52:31;98464.84;;;6.07
75658;BMP280;64255;49.892;17.884;2022-12-29T08:54:58;98441.47;;;6.02
75658;BMP280;64255;49.892;17.884;2022-12-29T08:57:26;98456.03;;;6.10
75658;BMP280;64255;49.892;17.884;2022-12-29T08:59:53;98440.34;;;6.25
75658;BMP280;64255;49.892;17.884;2022-12-29T09:02:20;98449.59;;;6.21
75658;BMP280;64255;49.892;17.884;2022-12-29T09:04:47;98467.25;;;6.27
75658;BMP280;64255;49.892;17.884;2022-12-29T09:07:14;98483.25;;;6.37
75658;BMP280;64255;49.892;17.884;2022-12-29T09:09:42;98483.56;;;6.39
75658;BMP280;64255;49.892;17.884;2022-12-29T09:12:09;98485.53;;;6.48
75658;BMP280;64255;49.892;17.884;2022-12-29T09:14:36;98493.44;;;6.60
75658;BMP280;64255;49.892;17.884;2022-12-29T09:17:03;98495.22;;;6.86
75658;BMP280;64255;49.892;17.884;2022-12-29T09:19:31;98486.91;;;7.06
75658;BMP280;64255;49.892;17.884;2022-12-29T09:21:58;98481.53;;;7.37
75658;BMP280;64255;49.892;17.884;2022-12-29T09:24:26;98471.19;;;7.49
75658;BMP280;64255;49.892;17.884;2022-12-29T09:26:53;98473.31;;;7.63
75658;BMP280;64255;49.892;17.884;2022-12-29T09:29:20;98464.59;;;7.72
75658;BMP280;64255;49.892;17.884;2022-12-29T09:31:47;98456.75;;;7.87
75658;BMP280;64255;49.892;17.884;2022-12-29T09:34:14;98452.59;;;7.95
75658;BMP280;64255;49.892;17.884;2022-12-29T09:36:42;98460.31;;;7.93
75658;BMP280;64255;49.892;17.884;2022-12-29T09:39:09;98461.78;;;7.94
75658;BMP280;64255;49.892;17.884;2022-12-29T09:41:57;98463.97;;;8.14
75658;BMP280;64255;49.892;17.884;2022-12-29T09:45:00;98480.16;;;8.11
75658;BMP280;64255;49.892;17.884;2022-12-29T09:47:30;98480.44;;;8.22
75658;BMP280;64255;49.892;17.884;2022-12-29T09:50:33;98484.16;;;8.34
75658;BMP280;64255;49.892;17.884;2022-12-29T09:53:36;98489.63;;;8.39
75658;BMP280;64255;49.892;17.884;2022-12-29T09:56:09;98481.88;;;8.41
75658;BMP280;64255;49.892;17.884;2022-12-29T09:58:53;98484.88;;;8.44
75658;BMP280;64255;49.892;17.884;2022-12-29T10:01:43;98470.03;;;8.43
75658;BMP280;64255;49.892;17.884;2022-12-29T10:04:10;98475.22;;;8.37
75658;BMP280;64255;49.892;17.884;2022-12-29T10:07:02;98461.91;;;8.46
75658;BMP280;64255;49.892;17.884;2022-12-29T10:09:55;98459.09;;;8.40
75658;BMP280;64255;49.892;17.884;2022-12-29T10:12:53;98482.50;;;8.36
75658;BMP280;64255;49.892;17.884;2022-12-29T10:15:57;98478.06;;;8.33
75658;BMP280;64255;49.892;17.884;2022-12-29T10:24:22;98491.22;;;8.55
75658;BMP280;64255;49.892;17.884;2022-12-29T10:26:52;98492.25;;;8.58
75658;BMP280;64255;49.892;17.884;2022-12-29T10:29:32;98496.38;;;8.59
75658;BMP280;64255;49.892;17.884;2022-12-29T10:34:55;98504.41;;;8.59
75658;BMP280;64255;49.892;17.884;2022-12-29T10:40:45;98506.41;;;8.83
75658;BMP280;64255;49.892;17.884;2022-12-29T10:43:38;98508.31;;;8.92
75658;BMP280;64255;49.892;17.884;2022-12-29T10:46:18;98508.69;;;8.66
75658;BMP280;64255;49.892;17.884;2022-12-29T10:48:46;98507.41;;;8.52
75658;BMP280;64255;49.892;17.884;2022-12-29T10:51:26;98489.91;;;8.51
75658;BMP280;64255;49.892;17.884;2022-12-29T10:54:16;98484.69;;;8.47
75658;BMP280;64255;49.892;17.884;2022-12-29T10:56:53;98489.59;;;8.49
75658;BMP280;64255;49.892;17.884;2022-12-29T10:59:31;98496.28;;;8.53
75658;BMP280;64255;49.892;17.884;2022-12-29T11:07:24;98503.81;;;8.64
75658;BMP280;64255;49.892;17.884;2022-12-29T11:09:51;98502.72;;;8.80
75658;BMP280;64255;49.892;17.884;2022-12-29T11:12:26;98496.00;;;8.94
75658;BMP280;64255;49.892;17.884;2022-12-29T11:17:50;98496.41;;;9.02
75658;BMP280;64255;49.892;17.884;2022-12-29T11:20:35;98495.09;;;9.31
75658;BMP280;64255;49.892;17.884;2022-12-29T11:23:22;98472.75;;;9.43
75658;BMP280;64255;49.892;17.884;2022-12-29T11:28:33;98493.97;;;9.47
75658;BMP280;64255;49.892;17.884;2022-12-29T11:31:03;98491.75;;;9.45
75658;BMP280;64255;49.892;17.884;2022-12-29T11:33:36;98481.84;;;9.61
75658;BMP280;64255;49.892;17.884;2022-12-29T11:36:16;98493.63;;;9.54
75658;BMP280;64255;49.892;17.884;2022-12-29T11:38:51;98494.28;;;9.39
75658;BMP280;64255;49.892;17.884;2022-12-29T11:41:30;98506.47;;;9.41
75658;BMP280;64255;49.892;17.884;2022-12-29T11:44:04;98501.22;;;9.22
75658;BMP280;64255;49.892;17.884;2022-12-29T11:46:36;98500.34;;;9.25
75658;BMP280;64255;49.892;17.884;2022-12-29T11:49:05;98497.69;;;9.16
75658;BMP280;64255;49.892;17.884;2022-12-29T11:51:47;98484.16;;;9.19
75658;BMP280;64255;49.892;17.884;2022-12-29T11:54:34;98485.81;;;9.17
75658;BMP280;64255;49.892;17.884;2022-12-29T11:57:15;98480.19;;;9.15
75658;BMP280;64255;49.892;17.884;2022-12-29T11:59:52;98476.00;;;9.23
75658;BMP280;64255;49.892;17.884;2022-12-29T12:03:15;98478.41;;;9.45
75658;BMP280;64255;49.892;17.884;2022-12-29T12:06:07;98468.19;;;9.59
75658;BMP280;64255;49.892;17.884;2022-12-29T12:09:26;98449.78;;;9.61
75658;BMP280;64255;49.892;17.884;2022-12-29T12:11:57;98461.75;;;9.65
75658;BMP280;64255;49.892;17.884;2022-12-29T12:14:28;98461.72;;;9.50
75658;BMP280;64255;49.892;17.884;2022-12-29T12:17:19;98452.47;;;9.61
75658;BMP280;64255;49.892;17.884;2022-12-29T12:22:31;98427.50;;;9.79
75658;BMP280;64255;49.892;17.884;2022-12-29T12:25:12;98413.88;;;9.92
75658;BMP280;64255;49.892;17.884;2022-12-29T12:29:01;98419.78;;;9.81
75658;BMP280;64255;49.892;17.884;2022-12-29T12:31:45;98410.91;;;9.75
75658;BMP280;64255;49.892;17.884;2022-12-29T12:34:48;98399.88;;;9.82
75658;BMP280;64255;49.892;17.884;2022-12-29T12:37:48;98400.38;;;9.56
75658;BMP280;64255;49.892;17.884;2022-12-29T12:52:33;98359.84;;;9.87
75658;BMP280;64255;49.892;17.884;2022-12-29T12:58:19;98352.75;;;9.99
75658;BMP280;64255;49.892;17.884;2022-12-29T13:10:12;98372.75;;;9.59
75658;BMP280;64255;49.892;17.884;2022-12-29T13:18:48;98383.94;;;9.48
75658;BMP280;64255;49.892;17.884;2022-12-29T13:24:35;98381.84;;;9.28
75658;BMP280;64255;49.892;17.884;2022-12-29T13:30:25;98385.78;;;9.18
75658;BMP280;64255;49.892;17.884;2022-12-29T13:41:55;98414.00;;;8.85
75658;BMP280;64255;49.892;17.884;2022-12-29T13:45:02;98408.25;;;8.78
75658;BMP280;64255;49.892;17.884;2022-12-29T13:47:38;98411.72;;;8.60
75658;BMP280;64255;49.892;17.884;2022-12-29T13:50:21;98410.47;;;8.46
75658;BMP280;64255;49.892;17.884;2022-12-29T13:53:01;98402.72;;;8.48
75658;BMP280;64255;49.892;17.884;2022-12-29T13:58:45;98404.28;;;8.21
75658;BMP280;64255;49.892;17.884;2022-12-29T14:04:17;98412.47;;;8.08
75658;BMP280;64255;49.892;17.884;2022-12-29T14:07:03;98418.09;;;8.01
75658;BMP280;64255;49.892;17.884;2022-12-29T14:09:50;98409.66;;;7.84
75658;BMP280;64255;49.892;17.884;2022-12-29T14:12:42;98410.84;;;7.83
75658;BMP280;64255;49.892;17.884;2022-12-29T14:17:40;98403.47;;;7.68
75658;BMP280;64255;49.892;17.884;2022-12-29T14:20:21;98396.19;;;7.69
75658;BMP280;64255;49.892;17.884;2022-12-29T14:28:34;98376.66;;;7.53
75658;BMP280;64255;49.892;17.884;2022-12-29T14:39:41;98373.41;;;7.49
75658;BMP280;64255;49.892;17.884;2022-12-29T14:47:47;98369.66;;;7.47
75658;BMP280;64255;49.892;17.884;2022-12-29T14:50:25;98362.72;;;7.40
75658;BMP280;64255;49.892;17.884;2022-12-29T14:53:03;98377.09;;;7.42
75658;BMP280;64255;49.892;17.884;2022-12-29T14:58:37;98376.78;;;7.40
75658;BMP280;64255;49.892;17.884;2022-12-29T15:01:42;98369.25;;;7.39
75658;BMP280;64255;49.892;17.884;2022-12-29T15:04:35;98381.38;;;7.40
75658;BMP280;64255;49.892;17.884;2022-12-29T15:07:09;98376.50;;;7.38
75658;BMP280;64255;49.892;17.884;2022-12-29T15:12:45;98393.78;;;7.34
75658;BMP280;64255;49.892;17.884;2022-12-29T15:15:26;98385.97;;;7.30
75658;BMP280;64255;49.892;17.884;2022-12-29T15:17:54;98393.94;;;7.30
75658;BMP280;64255;49.892;17.884;2022-12-29T15:20:30;98410.97;;;7.33
75658;BMP280;64255;49.892;17.884;2022-12-29T15:23:08;98403.25;;;7.35
75658;BMP280;64255;49.892;17.884;2022-12-29T15:25:49;98404.59;;;7.30
75658;BMP280;64255;49.892;17.884;2022-12-29T15:28:21;98412.72;;;7.26
75658;BMP280;64255;49.892;17.884;2022-12-29T15:31:11;98412.72;;;7.26
75658;BMP280;64255;49.892;17.884;2022-12-29T15:33:46;98398.66;;;7.26
75658;BMP280;64255;49.892;17.884;2022-12-29T15:36:21;98408.53;;;7.16
75658;BMP280;64255;49.892;17.884;2022-12-29T15:38:50;98399.69;;;7.19
75658;BMP280;64255;49.892;17.884;2022-12-29T15:44:24;98405.47;;;7.18
75658;BMP280;64255;49.892;17.884;2022-12-29T15:46:52;98406.00;;;7.13
75658;BMP280;64255;49.892;17.884;2022-12-29T15:49:20;98411.03;;;7.10
75658;BMP280;64255;49.892;17.884;2022-12-29T15:51:50;98414.13;;;7.00
75658;BMP280;64255;49.892;17.884;2022-12-29T15:54:20;98421.31;;;6.90
75658;BMP280;64255;49.892;17.884;2022-12-29T15:56:48;98420.03;;;7.04
75658;BMP280;64255;49.892;17.884;2022-12-29T15:59:34;98403.34;;;7.03
75658;BMP280;64255;49.892;17.884;2022-12-29T16:02:02;98406.88;;;7.00
75658;BMP280;64255;49.892;17.884;2022-12-29T16:04:32;98418.97;;;6.92
75658;BMP280;64255;49.892;17.884;2022-12-29T16:07:04;98406.13;;;7.00
75658;BMP280;64255;49.892;17.884;2022-12-29T16:09:43;98417.03;;;6.92
75658;BMP280;64255;49.892;17.884;2022-12-29T16:12:22;98409.09;;;7.02
75658;BMP280;64255;49.892;17.884;2022-12-29T16:15:12;98417.81;;;6.93
75658;BMP280;64255;49.892;17.884;2022-12-29T16:17:50;98412.03;;;6.94
75658;BMP280;64255;49.892;17.884;2022-12-29T16:20:34;98401.22;;;6.89
75658;BMP280;64255;49.892;17.884;2022-12-29T16:23:04;98407.16;;;6.93
75658;BMP280;64255;49.892;17.884;2022-12-29T16:25:34;98408.47;;;6.98
75658;BMP280;64255;49.892;17.884;2022-12-29T16:28:03;98418.38;;;6.97
75658;BMP280;64255;49.892;17.884;2022-12-29T16:30:40;98413.38;;;6.99
75658;BMP280;64255;49.892;17.884;2022-12-29T16:33:36;98409.97;;;6.99
75658;BMP280;64255;49.892;17.884;2022-12-29T16:41:46;98424.78;;;7.09
75658;BMP280;64255;49.892;17.884;2022-12-29T16:44:26;98399.19;;;7.11
75658;BMP280;64255;49.892;17.884;2022-12-29T16:49:27;98419.94;;;7.17
75658;BMP280;64255;49.892;17.884;2022-12-29T16:51:56;98425.59;;;7.19
75658;BMP280;64255;49.892;17.884;2022-12-29T16:54:35;98420.41;;;7.24
75658;BMP280;64255;49.892;17.884;2022-12-29T16:57:04;98405.91;;;7.25
75658;BMP280;64255;49.892;17.884;2022-12-29T16:59:41;98396.75;;;7.26
75658;BMP280;64255;49.892;17.884;2022-12-29T17:02:20;98405.16;;;7.25
75658;BMP280;64255;49.892;17.884;2022-12-29T17:04:49;98408.13;;;7.27
75658;BMP280;64255;49.892;17.884;2022-12-29T17:07:22;98395.69;;;7.24